DAL658 PHNL-KLAX
Flight info
| Callsign | DAL658 |
|---|---|
| Flight time | 4h 29m |
| Altitude | 35000 |
| Route | MKK5 KOLEA CLUTS R465 CIVIT R585 GITLE ADUMM GALIP R585 AUDIA SNAXX RYDRR2 |
| Aircraft | MD11/H-SDE1E2E3FGHIJ2J3J4J5M1RWXY/LB1D1 |
Departure
| Time | 2026-04-23 15:09 |
|---|---|
| Airport | Daniel K. Inouye International Airport (PHNL) |
Arrival
| Time | 2026-04-23 19:38 |
|---|---|
| Airport | Los Angeles International Airport (KLAX) |
| Time | Latitude | Longitude | Altitude | Speed | Heading |
|---|---|---|---|---|---|
| 2026-04-23 14:50 | 21.33000 | -157.91752 | 30 ft | 0 kts | 99° |
| 2026-04-23 14:59 | 21.33001 | -157.91756 | 31 ft | 3 kts | 99° |
| 2026-04-23 14:59 | 21.33005 | -157.91785 | 31 ft | 4 kts | 99° |
| 2026-04-23 14:59 | 21.33009 | -157.91801 | 31 ft | 4 kts | 134° |
| 2026-04-23 15:00 | 21.33025 | -157.91816 | 31 ft | 4 kts | 172° |
| 2026-04-23 15:00 | 21.33048 | -157.91813 | 31 ft | 4 kts | 194° |
| 2026-04-23 15:00 | 21.33060 | -157.91810 | 31 ft | 1 kts | 190° |
| 2026-04-23 15:00 | 21.33061 | -157.91810 | 31 ft | 0 kts | 190° |
| 2026-04-23 15:03 | 21.33025 | -157.91817 | 30 ft | 10 kts | 190° |
| 2026-04-23 15:03 | 21.32925 | -157.91834 | 30 ft | 18 kts | 189° |
| 2026-04-23 15:03 | 21.32817 | -157.91855 | 31 ft | 14 kts | 201° |
| 2026-04-23 15:03 | 21.32776 | -157.91942 | 31 ft | 16 kts | 267° |
| 2026-04-23 15:04 | 21.32774 | -157.92094 | 31 ft | 24 kts | 270° |
| 2026-04-23 15:04 | 21.32774 | -157.92274 | 32 ft | 24 kts | 270° |
| 2026-04-23 15:04 | 21.32773 | -157.92445 | 32 ft | 22 kts | 270° |
| 2026-04-23 15:04 | 21.32773 | -157.92624 | 32 ft | 27 kts | 270° |
| 2026-04-23 15:05 | 21.32742 | -157.92820 | 32 ft | 26 kts | 258° |
| 2026-04-23 15:05 | 21.32741 | -157.93001 | 32 ft | 23 kts | 270° |
| 2026-04-23 15:05 | 21.32742 | -157.93167 | 32 ft | 22 kts | 270° |
| 2026-04-23 15:05 | 21.32743 | -157.93321 | 32 ft | 20 kts | 270° |
| 2026-04-23 15:06 | 21.32743 | -157.93462 | 32 ft | 19 kts | 270° |
| 2026-04-23 15:06 | 21.32742 | -157.93618 | 32 ft | 22 kts | 270° |
| 2026-04-23 15:06 | 21.32741 | -157.93779 | 32 ft | 21 kts | 269° |
| 2026-04-23 15:06 | 21.32740 | -157.93934 | 32 ft | 21 kts | 269° |
| 2026-04-23 15:07 | 21.32739 | -157.94092 | 32 ft | 23 kts | 270° |
| 2026-04-23 15:07 | 21.32735 | -157.94283 | 32 ft | 22 kts | 256° |
| 2026-04-23 15:07 | 21.32654 | -157.94329 | 32 ft | 7 kts | 169° |
| 2026-04-23 15:07 | 21.32577 | -157.94314 | 32 ft | 20 kts | 158° |
| 2026-04-23 15:08 | 21.32526 | -157.94077 | 32 ft | 66 kts | 90° |
| 2026-04-23 15:08 | 21.32524 | -157.93262 | 32 ft | 148 kts | 90° |
| 2026-04-23 15:08 | 21.32534 | -157.91943 | 249 ft | 188 kts | 89° |
| 2026-04-23 15:09 | 21.32451 | -157.89059 | 1974 ft | 199 kts | 92° |
| 2026-04-23 15:09 | 21.32358 | -157.87597 | 2863 ft | 200 kts | 91° |
| 2026-04-23 15:09 | 21.32247 | -157.86101 | 3782 ft | 200 kts | 92° |
| 2026-04-23 15:09 | 21.32101 | -157.84622 | 4679 ft | 199 kts | 94° |
| 2026-04-23 15:10 | 21.32026 | -157.83636 | 5232 ft | 199 kts | 91° |
| 2026-04-23 15:10 | 21.32111 | -157.81693 | 6369 ft | 196 kts | 81° |
| 2026-04-23 15:10 | 21.32321 | -157.80208 | 6930 ft | 203 kts | 81° |
| 2026-04-23 15:10 | 21.32550 | -157.78655 | 7125 ft | 223 kts | 73° |
| 2026-04-23 15:11 | 21.33257 | -157.77169 | 7582 ft | 222 kts | 57° |
| 2026-04-23 15:11 | 21.34109 | -157.75796 | 8191 ft | 219 kts | 56° |
| 2026-04-23 15:11 | 21.34939 | -157.74442 | 8802 ft | 215 kts | 57° |
| 2026-04-23 15:11 | 21.35742 | -157.73096 | 9421 ft | 212 kts | 57° |
| 2026-04-23 15:12 | 21.36519 | -157.71768 | 10035 ft | 208 kts | 57° |
| 2026-04-23 15:12 | 21.37289 | -157.70430 | 10485 ft | 220 kts | 57° |
| 2026-04-23 15:12 | 21.38129 | -157.68955 | 10633 ft | 247 kts | 57° |
| 2026-04-23 15:12 | 21.39062 | -157.67303 | 10782 ft | 270 kts | 57° |
| 2026-04-23 15:13 | 21.40073 | -157.65501 | 10918 ft | 293 kts | 57° |
| 2026-04-23 15:13 | 21.41165 | -157.63542 | 11070 ft | 317 kts | 58° |
| 2026-04-23 15:13 | 21.42337 | -157.61427 | 11198 ft | 340 kts | 58° |
| 2026-04-23 15:13 | 21.43570 | -157.59194 | 11336 ft | 362 kts | 58° |
| 2026-04-23 15:14 | 21.44873 | -157.56825 | 11863 ft | 371 kts | 58° |
| 2026-04-23 15:14 | 21.46192 | -157.54420 | 12545 ft | 375 kts | 58° |
| 2026-04-23 15:14 | 21.47523 | -157.51990 | 13246 ft | 379 kts | 57° |
| 2026-04-23 15:14 | 21.48854 | -157.49561 | 13924 ft | 382 kts | 57° |
| 2026-04-23 15:15 | 21.50210 | -157.47083 | 14582 ft | 386 kts | 57° |
| 2026-04-23 15:15 | 21.51577 | -157.44585 | 15217 ft | 389 kts | 57° |
| 2026-04-23 15:15 | 21.52955 | -157.42067 | 15854 ft | 393 kts | 57° |
| 2026-04-23 15:15 | 21.54349 | -157.39522 | 16468 ft | 396 kts | 57° |
| 2026-04-23 15:16 | 21.55277 | -157.37826 | 16854 ft | 398 kts | 57° |
| 2026-04-23 15:16 | 21.56688 | -157.35244 | 17448 ft | 402 kts | 57° |
| 2026-04-23 15:16 | 21.58110 | -157.32640 | 18023 ft | 405 kts | 57° |
| 2026-04-23 15:16 | 21.59540 | -157.30020 | 18581 ft | 409 kts | 57° |
| 2026-04-23 15:17 | 21.60988 | -157.27370 | 19107 ft | 412 kts | 57° |
| 2026-04-23 15:17 | 21.62451 | -157.24690 | 19613 ft | 416 kts | 57° |
| 2026-04-23 15:17 | 21.63921 | -157.21994 | 20085 ft | 420 kts | 57° |
| 2026-04-23 15:17 | 21.65407 | -157.19269 | 20574 ft | 424 kts | 57° |
| 2026-04-23 15:18 | 21.66891 | -157.16546 | 21029 ft | 428 kts | 57° |
| 2026-04-23 15:18 | 21.68406 | -157.13764 | 21502 ft | 432 kts | 58° |
| 2026-04-23 15:18 | 21.69929 | -157.10966 | 21948 ft | 435 kts | 58° |
| 2026-04-23 15:18 | 21.71467 | -157.08137 | 22402 ft | 439 kts | 58° |
| 2026-04-23 15:19 | 21.73015 | -157.05287 | 22843 ft | 442 kts | 58° |
| 2026-04-23 15:19 | 21.74556 | -157.02448 | 23259 ft | 446 kts | 58° |
| 2026-04-23 15:19 | 21.76126 | -156.99544 | 23681 ft | 450 kts | 58° |
| 2026-04-23 15:19 | 21.77707 | -156.96616 | 24099 ft | 453 kts | 58° |
| 2026-04-23 15:20 | 21.79303 | -156.93665 | 24508 ft | 456 kts | 58° |
| 2026-04-23 15:20 | 21.80908 | -156.90700 | 24891 ft | 460 kts | 58° |
| 2026-04-23 15:20 | 21.82510 | -156.87741 | 25266 ft | 463 kts | 58° |
| 2026-04-23 15:20 | 21.84139 | -156.84733 | 25649 ft | 466 kts | 58° |
| 2026-04-23 15:21 | 21.85778 | -156.81705 | 26004 ft | 469 kts | 58° |
| 2026-04-23 15:21 | 21.87428 | -156.78656 | 26347 ft | 473 kts | 58° |
| 2026-04-23 15:21 | 21.89094 | -156.75576 | 26681 ft | 476 kts | 58° |
| 2026-04-23 15:21 | 21.90766 | -156.72481 | 27016 ft | 479 kts | 58° |
| 2026-04-23 15:22 | 21.92431 | -156.69399 | 27352 ft | 482 kts | 58° |
| 2026-04-23 15:22 | 21.94124 | -156.66262 | 27674 ft | 485 kts | 58° |
| 2026-04-23 15:22 | 21.95825 | -156.63109 | 27969 ft | 488 kts | 58° |
| 2026-04-23 15:22 | 21.97536 | -156.59933 | 28276 ft | 491 kts | 58° |
| 2026-04-23 15:23 | 21.99256 | -156.56742 | 28574 ft | 494 kts | 58° |
| 2026-04-23 15:23 | 22.00986 | -156.53530 | 28879 ft | 496 kts | 58° |
| 2026-04-23 15:23 | 22.02706 | -156.50337 | 29161 ft | 500 kts | 58° |
| 2026-04-23 15:23 | 22.04453 | -156.47088 | 29449 ft | 502 kts | 58° |
| 2026-04-23 15:24 | 22.06217 | -156.43806 | 29726 ft | 505 kts | 58° |
| 2026-04-23 15:24 | 22.07985 | -156.40513 | 30002 ft | 508 kts | 58° |
| 2026-04-23 15:24 | 22.09762 | -156.37204 | 30298 ft | 510 kts | 58° |
| 2026-04-23 15:24 | 22.11518 | -156.33927 | 30671 ft | 511 kts | 58° |
| 2026-04-23 15:25 | 22.13298 | -156.30605 | 31088 ft | 510 kts | 58° |
| 2026-04-23 15:25 | 22.15074 | -156.27289 | 31477 ft | 510 kts | 57° |
| 2026-04-23 15:25 | 22.16846 | -156.23974 | 31886 ft | 508 kts | 57° |
| 2026-04-23 15:25 | 22.18588 | -156.20702 | 32261 ft | 508 kts | 57° |
| 2026-04-23 15:26 | 22.20351 | -156.17392 | 32636 ft | 507 kts | 57° |
| 2026-04-23 15:26 | 22.22111 | -156.14085 | 32983 ft | 506 kts | 57° |
| 2026-04-23 15:26 | 22.23870 | -156.10787 | 33316 ft | 506 kts | 57° |
| 2026-04-23 15:26 | 22.25631 | -156.07489 | 33647 ft | 505 kts | 57° |
| 2026-04-23 15:27 | 22.27365 | -156.04239 | 33976 ft | 504 kts | 57° |
| 2026-04-23 15:27 | 22.29114 | -156.00958 | 34280 ft | 504 kts | 57° |
| 2026-04-23 15:27 | 22.30876 | -155.97655 | 34411 ft | 507 kts | 57° |
| 2026-04-23 15:27 | 22.32646 | -155.94333 | 34535 ft | 510 kts | 57° |
| 2026-04-23 15:28 | 22.34397 | -155.91044 | 34662 ft | 512 kts | 57° |
| 2026-04-23 15:28 | 22.36177 | -155.87698 | 34782 ft | 513 kts | 56° |
| 2026-04-23 15:28 | 22.37966 | -155.84331 | 34911 ft | 514 kts | 57° |
| 2026-04-23 15:28 | 22.39723 | -155.81023 | 35100 ft | 513 kts | 57° |
| 2026-04-23 15:29 | 22.41504 | -155.77667 | 35159 ft | 515 kts | 56° |
| 2026-04-23 15:29 | 22.45087 | -155.70907 | 35182 ft | 520 kts | 56° |
| 2026-04-23 15:30 | 22.48682 | -155.64119 | 35183 ft | 522 kts | 56° |
| 2026-04-23 15:30 | 22.52284 | -155.57301 | 35183 ft | 520 kts | 57° |
| 2026-04-23 15:31 | 22.55864 | -155.50518 | 35164 ft | 521 kts | 56° |
| 2026-04-23 15:31 | 22.59459 | -155.43687 | 35114 ft | 520 kts | 57° |
| 2026-04-23 15:32 | 22.63031 | -155.36886 | 35111 ft | 522 kts | 56° |
| 2026-04-23 15:32 | 22.66635 | -155.30023 | 35109 ft | 523 kts | 57° |
| 2026-04-23 15:33 | 22.70212 | -155.23212 | 35110 ft | 523 kts | 56° |
| 2026-04-23 15:33 | 22.73813 | -155.16348 | 35109 ft | 523 kts | 56° |
| 2026-04-23 15:34 | 22.77398 | -155.09510 | 35109 ft | 523 kts | 57° |
| 2026-04-23 15:34 | 22.80995 | -155.02633 | 35109 ft | 524 kts | 56° |
| 2026-04-23 15:35 | 22.84583 | -154.95764 | 35102 ft | 524 kts | 57° |
| 2026-04-23 15:35 | 22.88153 | -154.88922 | 35099 ft | 524 kts | 57° |
| 2026-04-23 15:36 | 22.91752 | -154.82019 | 35101 ft | 524 kts | 56° |
| 2026-04-23 15:36 | 22.95316 | -154.75172 | 35099 ft | 525 kts | 56° |
| 2026-04-23 15:37 | 22.98901 | -154.68266 | 35100 ft | 525 kts | 57° |
| 2026-04-23 15:37 | 23.02666 | -154.61508 | 35101 ft | 523 kts | 53° |
| 2026-04-23 15:38 | 23.06676 | -154.54952 | 35099 ft | 522 kts | 52° |
| 2026-04-23 15:38 | 23.10738 | -154.48377 | 35101 ft | 523 kts | 52° |
| 2026-04-23 15:39 | 23.14747 | -154.41826 | 35101 ft | 523 kts | 52° |
| 2026-04-23 15:39 | 23.18762 | -154.35226 | 35101 ft | 523 kts | 52° |
| 2026-04-23 15:40 | 23.22780 | -154.28603 | 35101 ft | 524 kts | 52° |
| 2026-04-23 15:40 | 23.26769 | -154.22025 | 35101 ft | 523 kts | 52° |
| 2026-04-23 15:41 | 23.30788 | -154.15392 | 35101 ft | 524 kts | 52° |
| 2026-04-23 15:41 | 23.34800 | -154.08759 | 35101 ft | 524 kts | 52° |
| 2026-04-23 15:42 | 23.38780 | -154.02167 | 35100 ft | 524 kts | 52° |
| 2026-04-23 15:42 | 23.42791 | -153.95521 | 35101 ft | 525 kts | 52° |
| 2026-04-23 15:43 | 23.46796 | -153.88867 | 35101 ft | 525 kts | 52° |
| 2026-04-23 15:43 | 23.50770 | -153.82231 | 35100 ft | 525 kts | 52° |
| 2026-04-23 15:44 | 23.54769 | -153.75564 | 35101 ft | 525 kts | 52° |
| 2026-04-23 15:44 | 23.58776 | -153.68887 | 35101 ft | 525 kts | 52° |
| 2026-04-23 15:45 | 23.62755 | -153.62247 | 35100 ft | 525 kts | 52° |
| 2026-04-23 15:45 | 23.66753 | -153.55568 | 35101 ft | 525 kts | 52° |
| 2026-04-23 15:46 | 23.70749 | -153.48885 | 35100 ft | 525 kts | 52° |
| 2026-04-23 15:46 | 23.74742 | -153.42194 | 35099 ft | 525 kts | 52° |
| 2026-04-23 15:47 | 23.78708 | -153.35538 | 35101 ft | 525 kts | 52° |
| 2026-04-23 15:47 | 23.82692 | -153.28834 | 35101 ft | 525 kts | 52° |
| 2026-04-23 15:48 | 23.86682 | -153.22129 | 35101 ft | 526 kts | 52° |
| 2026-04-23 15:48 | 23.90643 | -153.15466 | 35101 ft | 526 kts | 52° |
| 2026-04-23 15:49 | 23.94633 | -153.08746 | 35100 ft | 526 kts | 52° |
| 2026-04-23 15:49 | 23.98621 | -153.02018 | 35101 ft | 526 kts | 52° |
| 2026-04-23 15:50 | 24.02574 | -152.95343 | 35099 ft | 526 kts | 52° |
| 2026-04-23 15:50 | 24.06565 | -152.88597 | 35102 ft | 527 kts | 52° |
| 2026-04-23 15:51 | 24.10546 | -152.81854 | 35100 ft | 527 kts | 52° |
| 2026-04-23 15:51 | 24.14502 | -152.75140 | 35100 ft | 527 kts | 52° |
| 2026-04-23 15:52 | 24.18484 | -152.68380 | 35101 ft | 528 kts | 52° |
| 2026-04-23 15:52 | 24.22443 | -152.61650 | 35099 ft | 528 kts | 52° |
| 2026-04-23 15:53 | 24.26408 | -152.54872 | 35100 ft | 528 kts | 52° |
| 2026-04-23 15:53 | 24.30370 | -152.48094 | 35101 ft | 528 kts | 52° |
| 2026-04-23 15:54 | 24.34318 | -152.41349 | 35101 ft | 528 kts | 52° |
| 2026-04-23 15:54 | 24.38286 | -152.34564 | 35100 ft | 528 kts | 52° |
| 2026-04-23 15:55 | 24.42252 | -152.27777 | 35100 ft | 527 kts | 52° |
| 2026-04-23 15:55 | 24.46193 | -152.21024 | 35101 ft | 528 kts | 53° |
| 2026-04-23 15:56 | 24.50140 | -152.14245 | 35111 ft | 528 kts | 52° |
| 2026-04-23 15:56 | 24.54098 | -152.07438 | 35118 ft | 528 kts | 52° |
| 2026-04-23 15:57 | 24.58057 | -152.00622 | 35118 ft | 528 kts | 52° |
| 2026-04-23 15:57 | 24.61989 | -151.93846 | 35117 ft | 528 kts | 53° |
| 2026-04-23 15:58 | 24.65937 | -151.87028 | 35121 ft | 529 kts | 53° |
| 2026-04-23 15:58 | 24.69884 | -151.80187 | 35119 ft | 530 kts | 53° |
| 2026-04-23 15:59 | 24.73815 | -151.73351 | 35119 ft | 529 kts | 53° |
| 2026-04-23 15:59 | 24.77742 | -151.66528 | 35119 ft | 530 kts | 53° |
| 2026-04-23 16:00 | 24.81673 | -151.59702 | 35118 ft | 530 kts | 52° |
| 2026-04-23 16:00 | 24.85629 | -151.52822 | 35120 ft | 529 kts | 52° |
| 2026-04-23 16:01 | 24.89570 | -151.45961 | 35118 ft | 530 kts | 52° |
| 2026-04-23 16:01 | 24.93493 | -151.39120 | 35119 ft | 530 kts | 52° |
| 2026-04-23 16:02 | 24.97429 | -151.32243 | 35119 ft | 530 kts | 52° |
| 2026-04-23 16:02 | 25.01341 | -151.25405 | 35121 ft | 530 kts | 52° |
| 2026-04-23 16:03 | 25.05279 | -151.18508 | 35127 ft | 530 kts | 52° |
| 2026-04-23 16:03 | 25.09215 | -151.11604 | 35127 ft | 531 kts | 52° |
| 2026-04-23 16:04 | 25.13119 | -151.04737 | 35124 ft | 531 kts | 53° |
| 2026-04-23 16:04 | 25.17031 | -150.97820 | 35129 ft | 531 kts | 53° |
| 2026-04-23 16:05 | 25.20293 | -150.92061 | 35127 ft | 531 kts | 52° |
| 2026-04-23 16:05 | 25.24851 | -150.84012 | 35125 ft | 531 kts | 53° |
| 2026-04-23 16:06 | 25.28775 | -150.77079 | 35128 ft | 531 kts | 52° |
| 2026-04-23 16:06 | 25.32669 | -150.70190 | 35127 ft | 531 kts | 52° |
| 2026-04-23 16:07 | 25.36598 | -150.63229 | 35132 ft | 532 kts | 53° |
| 2026-04-23 16:07 | 25.40520 | -150.56265 | 35130 ft | 532 kts | 53° |
| 2026-04-23 16:08 | 25.44424 | -150.49325 | 35137 ft | 533 kts | 53° |
| 2026-04-23 16:08 | 25.47675 | -150.43539 | 35139 ft | 533 kts | 52° |
| 2026-04-23 16:09 | 25.52236 | -150.35409 | 35142 ft | 534 kts | 53° |
| 2026-04-23 16:09 | 25.55490 | -150.29597 | 35138 ft | 533 kts | 53° |
| 2026-04-23 16:10 | 25.59399 | -150.22585 | 35139 ft | 534 kts | 53° |
| 2026-04-23 16:10 | 25.63300 | -150.15575 | 35139 ft | 534 kts | 53° |
| 2026-04-23 16:11 | 25.67180 | -150.08609 | 35136 ft | 534 kts | 53° |
| 2026-04-23 16:11 | 25.71088 | -150.01593 | 35136 ft | 534 kts | 53° |
| 2026-04-23 16:12 | 25.74994 | -149.94566 | 35140 ft | 534 kts | 53° |
| 2026-04-23 16:12 | 25.78903 | -149.87526 | 35138 ft | 535 kts | 53° |
| 2026-04-23 16:13 | 25.82775 | -149.80536 | 35135 ft | 535 kts | 53° |
| 2026-04-23 16:13 | 25.88622 | -149.69970 | 35136 ft | 534 kts | 53° |
| 2026-04-23 16:14 | 25.92513 | -149.62925 | 35137 ft | 534 kts | 53° |
| 2026-04-23 16:14 | 25.96371 | -149.55929 | 35136 ft | 535 kts | 53° |
| 2026-04-23 16:15 | 26.00255 | -149.48871 | 35137 ft | 535 kts | 53° |
| 2026-04-23 16:15 | 26.04117 | -149.41802 | 35135 ft | 535 kts | 53° |
| 2026-04-23 16:16 | 26.07994 | -149.34713 | 35136 ft | 535 kts | 53° |
| 2026-04-23 16:16 | 26.11843 | -149.27690 | 35135 ft | 535 kts | 53° |
| 2026-04-23 16:17 | 26.15716 | -149.20617 | 35134 ft | 535 kts | 53° |
| 2026-04-23 16:17 | 26.19588 | -149.13531 | 35136 ft | 535 kts | 53° |
| 2026-04-23 16:18 | 26.23452 | -149.06444 | 35136 ft | 535 kts | 53° |
| 2026-04-23 16:18 | 26.27288 | -148.99397 | 35136 ft | 535 kts | 53° |
| 2026-04-23 16:19 | 26.31152 | -148.92300 | 35136 ft | 535 kts | 53° |
| 2026-04-23 16:19 | 26.34986 | -148.85232 | 35139 ft | 535 kts | 54° |
| 2026-04-23 16:20 | 26.38836 | -148.78123 | 35138 ft | 535 kts | 54° |
| 2026-04-23 16:20 | 26.42683 | -148.71011 | 35139 ft | 535 kts | 54° |
| 2026-04-23 16:21 | 26.46515 | -148.63883 | 35138 ft | 535 kts | 54° |
| 2026-04-23 16:21 | 26.50346 | -148.56756 | 35134 ft | 535 kts | 54° |
| 2026-04-23 16:22 | 26.54155 | -148.49680 | 35139 ft | 535 kts | 54° |
| 2026-04-23 16:22 | 26.57989 | -148.42552 | 35137 ft | 535 kts | 54° |
| 2026-04-23 16:23 | 26.61822 | -148.35411 | 35135 ft | 535 kts | 54° |
| 2026-04-23 16:23 | 26.65647 | -148.28273 | 35136 ft | 535 kts | 54° |
| 2026-04-23 16:24 | 26.69444 | -148.21176 | 35140 ft | 535 kts | 54° |
| 2026-04-23 16:24 | 26.73264 | -148.14028 | 35137 ft | 535 kts | 54° |
| 2026-04-23 16:25 | 26.77079 | -148.06878 | 35139 ft | 535 kts | 54° |
| 2026-04-23 16:25 | 26.80892 | -147.99713 | 35136 ft | 535 kts | 54° |
| 2026-04-23 16:26 | 26.84679 | -147.92589 | 35135 ft | 534 kts | 54° |
| 2026-04-23 16:26 | 26.88472 | -147.85420 | 35134 ft | 534 kts | 55° |
| 2026-04-23 16:27 | 26.92253 | -147.78251 | 35138 ft | 534 kts | 54° |
| 2026-04-23 16:27 | 26.96018 | -147.71122 | 35139 ft | 534 kts | 54° |
| 2026-04-23 16:28 | 26.99809 | -147.63943 | 35139 ft | 533 kts | 55° |
| 2026-04-23 16:28 | 27.03585 | -147.56784 | 35136 ft | 533 kts | 55° |
| 2026-04-23 16:29 | 27.07338 | -147.49658 | 35136 ft | 533 kts | 55° |
| 2026-04-23 16:29 | 27.11111 | -147.42479 | 35139 ft | 533 kts | 55° |
| 2026-04-23 16:30 | 27.14856 | -147.35343 | 35139 ft | 532 kts | 55° |
| 2026-04-23 16:30 | 27.18620 | -147.28158 | 35140 ft | 533 kts | 55° |
| 2026-04-23 16:31 | 27.22354 | -147.21015 | 35137 ft | 532 kts | 55° |
| 2026-04-23 16:31 | 27.26102 | -147.13838 | 35137 ft | 532 kts | 55° |
| 2026-04-23 16:32 | 27.29852 | -147.06628 | 35138 ft | 532 kts | 56° |
| 2026-04-23 16:32 | 27.33570 | -146.99446 | 35139 ft | 532 kts | 56° |
| 2026-04-23 16:33 | 27.37304 | -146.92240 | 35137 ft | 532 kts | 56° |
| 2026-04-23 16:33 | 27.40940 | -146.85024 | 35141 ft | 534 kts | 59° |
| 2026-04-23 16:34 | 27.44215 | -146.77496 | 35136 ft | 535 kts | 61° |
| 2026-04-23 16:34 | 27.47377 | -146.69875 | 35136 ft | 536 kts | 61° |
| 2026-04-23 16:35 | 27.50533 | -146.62327 | 35136 ft | 535 kts | 61° |
| 2026-04-23 16:35 | 27.53731 | -146.54740 | 35138 ft | 535 kts | 61° |
| 2026-04-23 16:36 | 27.56926 | -146.47164 | 35136 ft | 534 kts | 61° |
| 2026-04-23 16:36 | 27.60096 | -146.39631 | 35135 ft | 534 kts | 61° |
| 2026-04-23 16:37 | 27.63282 | -146.32045 | 35137 ft | 534 kts | 62° |
| 2026-04-23 16:37 | 27.66457 | -146.24463 | 35135 ft | 533 kts | 62° |
| 2026-04-23 16:38 | 27.69608 | -146.16923 | 35140 ft | 533 kts | 62° |
| 2026-04-23 16:38 | 27.72776 | -146.09335 | 35133 ft | 534 kts | 62° |
| 2026-04-23 16:39 | 27.75914 | -146.01799 | 35139 ft | 533 kts | 62° |
| 2026-04-23 16:39 | 27.79051 | -145.94196 | 35141 ft | 533 kts | 62° |
| 2026-04-23 16:40 | 27.82197 | -145.86595 | 35137 ft | 533 kts | 62° |
| 2026-04-23 16:40 | 27.85324 | -145.79041 | 35140 ft | 533 kts | 62° |
| 2026-04-23 16:41 | 27.88473 | -145.71425 | 35138 ft | 533 kts | 62° |
| 2026-04-23 16:41 | 27.91612 | -145.63824 | 35140 ft | 533 kts | 62° |
| 2026-04-23 16:42 | 27.94747 | -145.56212 | 35134 ft | 534 kts | 62° |
| 2026-04-23 16:42 | 27.97866 | -145.48622 | 35135 ft | 534 kts | 62° |
| 2026-04-23 16:43 | 28.00999 | -145.40979 | 35140 ft | 535 kts | 62° |
| 2026-04-23 16:43 | 28.04109 | -145.33385 | 35137 ft | 534 kts | 62° |
| 2026-04-23 16:44 | 28.07233 | -145.25748 | 35136 ft | 534 kts | 62° |
| 2026-04-23 16:44 | 28.10357 | -145.18088 | 35138 ft | 534 kts | 62° |
| 2026-04-23 16:45 | 28.13438 | -145.10470 | 35134 ft | 534 kts | 63° |
| 2026-04-23 16:45 | 28.16539 | -145.02801 | 35136 ft | 535 kts | 63° |
| 2026-04-23 16:46 | 28.19651 | -144.95118 | 35137 ft | 535 kts | 63° |
| 2026-04-23 16:46 | 28.22737 | -144.87493 | 35136 ft | 535 kts | 63° |
| 2026-04-23 16:47 | 28.25838 | -144.79814 | 35136 ft | 535 kts | 63° |
| 2026-04-23 16:47 | 28.28934 | -144.72137 | 35140 ft | 535 kts | 63° |
| 2026-04-23 16:48 | 28.32029 | -144.64447 | 35139 ft | 536 kts | 63° |
| 2026-04-23 16:48 | 28.35105 | -144.56788 | 35137 ft | 535 kts | 63° |
| 2026-04-23 16:49 | 28.38193 | -144.49076 | 35140 ft | 535 kts | 63° |
| 2026-04-23 16:49 | 28.41261 | -144.41409 | 35138 ft | 536 kts | 63° |
| 2026-04-23 16:50 | 28.44346 | -144.33680 | 35134 ft | 536 kts | 63° |
| 2026-04-23 16:50 | 28.47418 | -144.25929 | 35137 ft | 536 kts | 63° |
| 2026-04-23 16:51 | 28.50461 | -144.18228 | 35136 ft | 536 kts | 63° |
| 2026-04-23 16:51 | 28.53517 | -144.10515 | 35133 ft | 536 kts | 63° |
| 2026-04-23 16:52 | 28.56583 | -144.02774 | 35133 ft | 536 kts | 63° |
| 2026-04-23 16:52 | 28.59645 | -143.95027 | 35136 ft | 537 kts | 63° |
| 2026-04-23 16:53 | 28.62710 | -143.87257 | 35137 ft | 537 kts | 63° |
| 2026-04-23 16:53 | 28.65749 | -143.79531 | 35138 ft | 537 kts | 63° |
| 2026-04-23 16:54 | 28.68805 | -143.71743 | 35135 ft | 537 kts | 64° |
| 2026-04-23 16:54 | 28.71840 | -143.64004 | 35136 ft | 537 kts | 64° |
| 2026-04-23 16:55 | 28.74887 | -143.56215 | 35135 ft | 537 kts | 64° |
| 2026-04-23 16:55 | 28.77929 | -143.48424 | 35134 ft | 538 kts | 64° |
| 2026-04-23 16:56 | 28.80946 | -143.40653 | 35136 ft | 538 kts | 64° |
| 2026-04-23 16:56 | 28.83966 | -143.32828 | 35137 ft | 537 kts | 64° |
| 2026-04-23 16:57 | 28.86972 | -143.25060 | 35137 ft | 537 kts | 64° |
| 2026-04-23 16:57 | 28.89997 | -143.17250 | 35139 ft | 537 kts | 64° |
| 2026-04-23 16:58 | 28.93018 | -143.09431 | 35135 ft | 538 kts | 64° |
| 2026-04-23 16:58 | 28.96016 | -143.01660 | 35136 ft | 538 kts | 64° |
| 2026-04-23 16:59 | 28.99031 | -142.93818 | 35138 ft | 538 kts | 64° |
| 2026-04-23 16:59 | 29.02040 | -142.85978 | 35137 ft | 538 kts | 64° |
| 2026-04-23 17:00 | 29.05028 | -142.78177 | 35139 ft | 538 kts | 64° |
| 2026-04-23 17:00 | 29.07521 | -142.71660 | 35136 ft | 538 kts | 64° |
| 2026-04-23 17:01 | 29.10523 | -142.63798 | 35147 ft | 539 kts | 64° |
| 2026-04-23 17:01 | 29.13516 | -142.55922 | 35147 ft | 539 kts | 64° |
| 2026-04-23 17:02 | 29.16471 | -142.48084 | 35147 ft | 539 kts | 64° |
| 2026-04-23 17:02 | 29.19451 | -142.40195 | 35144 ft | 539 kts | 64° |
| 2026-04-23 17:03 | 29.22433 | -142.32316 | 35148 ft | 540 kts | 64° |
| 2026-04-23 17:03 | 29.25421 | -142.24406 | 35141 ft | 540 kts | 64° |
| 2026-04-23 17:04 | 29.28381 | -142.16551 | 35147 ft | 540 kts | 64° |
| 2026-04-23 17:04 | 29.31356 | -142.08637 | 35147 ft | 540 kts | 64° |
| 2026-04-23 17:05 | 29.34320 | -142.00735 | 35147 ft | 540 kts | 64° |
| 2026-04-23 17:05 | 29.37270 | -141.92855 | 35147 ft | 542 kts | 64° |
| 2026-04-23 17:06 | 29.40239 | -141.84908 | 35147 ft | 542 kts | 64° |
| 2026-04-23 17:06 | 29.43204 | -141.76951 | 35147 ft | 541 kts | 64° |
| 2026-04-23 17:07 | 29.46158 | -141.69002 | 35147 ft | 541 kts | 65° |
| 2026-04-23 17:07 | 29.49093 | -141.61029 | 35147 ft | 542 kts | 65° |
| 2026-04-23 17:08 | 29.52009 | -141.53113 | 35147 ft | 541 kts | 65° |
| 2026-04-23 17:08 | 29.54957 | -141.45137 | 35147 ft | 542 kts | 65° |
| 2026-04-23 17:09 | 29.57903 | -141.37150 | 35147 ft | 542 kts | 65° |
| 2026-04-23 17:09 | 29.60824 | -141.29207 | 35147 ft | 542 kts | 65° |
| 2026-04-23 17:10 | 29.63757 | -141.21219 | 35147 ft | 542 kts | 65° |
| 2026-04-23 17:10 | 29.66685 | -141.13222 | 35152 ft | 542 kts | 65° |
| 2026-04-23 17:11 | 29.69607 | -141.05226 | 35164 ft | 542 kts | 65° |
| 2026-04-23 17:11 | 29.72504 | -140.97279 | 35165 ft | 542 kts | 65° |
| 2026-04-23 17:12 | 29.75418 | -140.89269 | 35165 ft | 543 kts | 65° |
| 2026-04-23 17:12 | 29.78334 | -140.81229 | 35165 ft | 543 kts | 65° |
| 2026-04-23 17:13 | 29.81208 | -140.73223 | 35164 ft | 543 kts | 65° |
| 2026-04-23 17:13 | 29.84108 | -140.65165 | 35164 ft | 543 kts | 65° |
| 2026-04-23 17:14 | 29.87010 | -140.57112 | 35165 ft | 544 kts | 65° |
| 2026-04-23 17:14 | 29.89896 | -140.49088 | 35165 ft | 544 kts | 65° |
| 2026-04-23 17:15 | 29.92798 | -140.41007 | 35165 ft | 544 kts | 65° |
| 2026-04-23 17:15 | 29.95676 | -140.32970 | 35165 ft | 545 kts | 65° |
| 2026-04-23 17:16 | 29.98572 | -140.24862 | 35165 ft | 546 kts | 66° |
| 2026-04-23 17:16 | 30.01446 | -140.16797 | 35165 ft | 546 kts | 66° |
| 2026-04-23 17:17 | 30.04339 | -140.08664 | 35165 ft | 546 kts | 66° |
| 2026-04-23 17:17 | 30.07205 | -140.00577 | 35165 ft | 546 kts | 66° |
| 2026-04-23 17:18 | 30.11485 | -139.88437 | 35165 ft | 546 kts | 66° |
| 2026-04-23 17:19 | 30.14332 | -139.80306 | 35165 ft | 546 kts | 66° |
| 2026-04-23 17:19 | 30.17185 | -139.72179 | 35165 ft | 546 kts | 66° |
| 2026-04-23 17:20 | 30.20049 | -139.64025 | 35165 ft | 546 kts | 66° |
| 2026-04-23 17:21 | 30.25500 | -139.47670 | 35183 ft | 546 kts | 68° |
| 2026-04-23 17:21 | 30.29393 | -139.35295 | 35183 ft | 546 kts | 68° |
| 2026-04-23 17:22 | 30.33318 | -139.22882 | 35183 ft | 546 kts | 68° |
| 2026-04-23 17:23 | 30.37229 | -139.10491 | 35197 ft | 548 kts | 68° |
| 2026-04-23 17:24 | 30.41129 | -138.98084 | 35192 ft | 548 kts | 68° |
| 2026-04-23 17:24 | 30.45035 | -138.85592 | 35192 ft | 549 kts | 68° |
| 2026-04-23 17:25 | 30.48918 | -138.73152 | 35192 ft | 549 kts | 68° |
| 2026-04-23 17:26 | 30.54070 | -138.56452 | 35192 ft | 550 kts | 69° |
| 2026-04-23 17:27 | 30.57920 | -138.43955 | 35193 ft | 551 kts | 69° |
| 2026-04-23 17:27 | 30.60512 | -138.35546 | 35191 ft | 551 kts | 69° |
| 2026-04-23 17:28 | 30.63076 | -138.27202 | 35192 ft | 551 kts | 69° |
| 2026-04-23 17:28 | 30.65648 | -138.18803 | 35192 ft | 551 kts | 69° |
| 2026-04-23 17:29 | 30.68194 | -138.10464 | 35192 ft | 551 kts | 69° |
| 2026-04-23 17:30 | 30.71603 | -137.99276 | 35192 ft | 551 kts | 69° |
| 2026-04-23 17:30 | 30.75862 | -137.85243 | 35191 ft | 550 kts | 69° |
| 2026-04-23 17:31 | 30.78385 | -137.76892 | 35192 ft | 551 kts | 69° |
| 2026-04-23 17:31 | 30.80902 | -137.68469 | 35192 ft | 550 kts | 70° |
| 2026-04-23 17:32 | 30.83421 | -137.60047 | 35192 ft | 550 kts | 70° |
| 2026-04-23 17:32 | 30.85922 | -137.51692 | 35193 ft | 549 kts | 70° |
| 2026-04-23 17:33 | 30.88435 | -137.43289 | 35192 ft | 549 kts | 70° |
| 2026-04-23 17:33 | 30.90939 | -137.34895 | 35191 ft | 548 kts | 70° |
| 2026-04-23 17:34 | 30.93436 | -137.26509 | 35193 ft | 547 kts | 70° |
| 2026-04-23 17:35 | 30.97158 | -137.13969 | 35192 ft | 547 kts | 70° |
| 2026-04-23 17:35 | 31.00869 | -137.01395 | 35192 ft | 546 kts | 70° |
| 2026-04-23 17:36 | 31.03328 | -136.93035 | 35193 ft | 547 kts | 70° |
| 2026-04-23 17:36 | 31.05787 | -136.84651 | 35192 ft | 546 kts | 71° |
| 2026-04-23 17:37 | 31.08226 | -136.76240 | 35199 ft | 546 kts | 71° |
| 2026-04-23 17:38 | 31.11869 | -136.63689 | 35198 ft | 545 kts | 71° |
| 2026-04-23 17:38 | 31.14312 | -136.55278 | 35191 ft | 545 kts | 71° |
| 2026-04-23 17:39 | 31.16735 | -136.46929 | 35192 ft | 545 kts | 71° |
| 2026-04-23 17:39 | 31.19166 | -136.38533 | 35192 ft | 544 kts | 71° |
| 2026-04-23 17:40 | 31.21583 | -136.30148 | 35192 ft | 544 kts | 71° |
| 2026-04-23 17:40 | 31.23986 | -136.21779 | 35192 ft | 543 kts | 71° |
| 2026-04-23 17:41 | 31.26375 | -136.13441 | 35192 ft | 543 kts | 71° |
| 2026-04-23 17:41 | 31.29972 | -136.00857 | 35193 ft | 542 kts | 72° |
| 2026-04-23 17:42 | 31.33522 | -135.88335 | 35189 ft | 542 kts | 72° |
| 2026-04-23 17:43 | 31.35873 | -135.79957 | 35184 ft | 542 kts | 72° |
| 2026-04-23 17:43 | 31.38223 | -135.71623 | 35183 ft | 541 kts | 72° |
| 2026-04-23 17:44 | 31.40585 | -135.63257 | 35191 ft | 540 kts | 72° |
| 2026-04-23 17:44 | 31.44101 | -135.50739 | 35189 ft | 541 kts | 72° |
| 2026-04-23 17:45 | 31.47607 | -135.38205 | 35184 ft | 540 kts | 72° |
| 2026-04-23 17:46 | 31.51114 | -135.25619 | 35191 ft | 540 kts | 72° |
| 2026-04-23 17:46 | 31.53431 | -135.17274 | 35191 ft | 540 kts | 73° |
| 2026-04-23 17:47 | 31.55746 | -135.08898 | 35191 ft | 539 kts | 73° |
| 2026-04-23 17:48 | 31.59192 | -134.96365 | 35200 ft | 539 kts | 73° |
| 2026-04-23 17:48 | 31.61476 | -134.87964 | 35194 ft | 538 kts | 73° |
| 2026-04-23 17:49 | 31.63756 | -134.79606 | 35193 ft | 537 kts | 73° |
| 2026-04-23 17:49 | 31.66028 | -134.71305 | 35192 ft | 537 kts | 73° |
| 2026-04-23 17:50 | 31.68306 | -134.62952 | 35192 ft | 536 kts | 73° |
| 2026-04-23 17:50 | 31.71326 | -134.51829 | 35193 ft | 535 kts | 73° |
| 2026-04-23 17:51 | 31.73572 | -134.43530 | 35192 ft | 534 kts | 73° |
| 2026-04-23 17:52 | 31.76939 | -134.31040 | 35192 ft | 533 kts | 73° |
| 2026-04-23 17:52 | 31.80271 | -134.18634 | 35192 ft | 532 kts | 74° |
| 2026-04-23 17:53 | 31.83594 | -134.06180 | 35191 ft | 531 kts | 74° |
| 2026-04-23 17:54 | 31.85768 | -133.97927 | 35192 ft | 531 kts | 74° |
| 2026-04-23 17:54 | 31.89062 | -133.85455 | 35192 ft | 531 kts | 74° |
| 2026-04-23 17:55 | 31.92342 | -133.73040 | 35193 ft | 531 kts | 74° |
| 2026-04-23 17:56 | 31.94534 | -133.64721 | 35192 ft | 531 kts | 74° |
| 2026-04-23 17:56 | 31.97807 | -133.52240 | 35192 ft | 532 kts | 74° |
| 2026-04-23 17:57 | 31.99979 | -133.43928 | 35192 ft | 533 kts | 74° |
| 2026-04-23 17:58 | 32.03237 | -133.31407 | 35193 ft | 530 kts | 74° |
| 2026-04-23 17:58 | 32.05383 | -133.23125 | 35193 ft | 530 kts | 74° |
| 2026-04-23 17:59 | 32.07524 | -133.14841 | 35192 ft | 530 kts | 74° |
| 2026-04-23 17:59 | 32.09653 | -133.06499 | 35191 ft | 530 kts | 75° |
| 2026-04-23 18:00 | 32.11778 | -132.98160 | 35193 ft | 530 kts | 74° |
| 2026-04-23 18:00 | 32.14175 | -132.89978 | 35191 ft | 531 kts | 66° |
| 2026-04-23 18:01 | 32.17502 | -132.82173 | 35193 ft | 531 kts | 62° |
| 2026-04-23 18:01 | 32.21041 | -132.74492 | 35191 ft | 532 kts | 62° |
| 2026-04-23 18:02 | 32.24508 | -132.66788 | 35192 ft | 532 kts | 62° |
| 2026-04-23 18:02 | 32.27909 | -132.59054 | 35192 ft | 534 kts | 63° |
| 2026-04-23 18:03 | 32.31318 | -132.51250 | 35195 ft | 535 kts | 63° |
| 2026-04-23 18:03 | 32.34755 | -132.43378 | 35193 ft | 538 kts | 63° |
| 2026-04-23 18:04 | 32.38182 | -132.35519 | 35191 ft | 537 kts | 63° |
| 2026-04-23 18:04 | 32.41586 | -132.27701 | 35191 ft | 537 kts | 63° |
| 2026-04-23 18:05 | 32.45001 | -132.19839 | 35193 ft | 537 kts | 63° |
| 2026-04-23 18:05 | 32.48416 | -132.11951 | 35191 ft | 537 kts | 63° |
| 2026-04-23 18:06 | 32.51803 | -132.04099 | 35192 ft | 537 kts | 63° |
| 2026-04-23 18:06 | 32.55185 | -131.96202 | 35193 ft | 537 kts | 63° |
| 2026-04-23 18:07 | 32.58551 | -131.88352 | 35191 ft | 537 kts | 63° |
| 2026-04-23 18:07 | 32.61946 | -131.80447 | 35192 ft | 537 kts | 63° |
| 2026-04-23 18:08 | 32.64759 | -131.73890 | 35191 ft | 535 kts | 63° |
| 2026-04-23 18:08 | 32.68702 | -131.64674 | 35191 ft | 535 kts | 63° |
| 2026-04-23 18:09 | 32.72048 | -131.56831 | 35185 ft | 534 kts | 63° |
| 2026-04-23 18:09 | 32.75404 | -131.48944 | 35183 ft | 534 kts | 63° |
| 2026-04-23 18:10 | 32.78760 | -131.41046 | 35184 ft | 534 kts | 63° |
| 2026-04-23 18:10 | 32.82079 | -131.33213 | 35183 ft | 533 kts | 64° |
| 2026-04-23 18:11 | 32.85420 | -131.25313 | 35184 ft | 533 kts | 64° |
| 2026-04-23 18:11 | 32.88748 | -131.17420 | 35183 ft | 533 kts | 64° |
| 2026-04-23 18:12 | 32.92030 | -131.09564 | 35182 ft | 533 kts | 64° |
| 2026-04-23 18:12 | 32.95343 | -131.01639 | 35184 ft | 533 kts | 64° |
| 2026-04-23 18:13 | 32.98653 | -130.93732 | 35184 ft | 533 kts | 64° |
| 2026-04-23 18:13 | 33.01964 | -130.85817 | 35183 ft | 533 kts | 64° |
| 2026-04-23 18:14 | 33.05244 | -130.77958 | 35183 ft | 533 kts | 64° |
| 2026-04-23 18:14 | 33.08542 | -130.70035 | 35183 ft | 533 kts | 64° |
| 2026-04-23 18:15 | 33.11837 | -130.62094 | 35174 ft | 532 kts | 64° |
| 2026-04-23 18:15 | 33.15099 | -130.54222 | 35173 ft | 532 kts | 64° |
| 2026-04-23 18:16 | 33.18374 | -130.46303 | 35174 ft | 531 kts | 64° |
| 2026-04-23 18:16 | 33.21629 | -130.38412 | 35174 ft | 532 kts | 64° |
| 2026-04-23 18:17 | 33.26517 | -130.26512 | 35185 ft | 531 kts | 65° |
| 2026-04-23 18:17 | 33.29752 | -130.18559 | 35184 ft | 531 kts | 65° |
| 2026-04-23 18:18 | 33.32975 | -130.10650 | 35183 ft | 530 kts | 65° |
| 2026-04-23 18:18 | 33.36219 | -130.02702 | 35184 ft | 530 kts | 65° |
| 2026-04-23 18:19 | 33.39432 | -129.94812 | 35175 ft | 530 kts | 65° |
| 2026-04-23 18:19 | 33.42666 | -129.86852 | 35174 ft | 531 kts | 65° |
| 2026-04-23 18:20 | 33.45897 | -129.78884 | 35174 ft | 531 kts | 65° |
| 2026-04-23 18:20 | 33.49096 | -129.70971 | 35174 ft | 531 kts | 65° |
| 2026-04-23 18:21 | 33.52319 | -129.62985 | 35174 ft | 531 kts | 65° |
| 2026-04-23 18:21 | 33.55537 | -129.54996 | 35174 ft | 531 kts | 65° |
| 2026-04-23 18:22 | 33.58725 | -129.47056 | 35174 ft | 531 kts | 65° |
| 2026-04-23 18:22 | 33.61931 | -129.39047 | 35174 ft | 531 kts | 65° |
| 2026-04-23 18:23 | 33.66699 | -129.27022 | 35174 ft | 531 kts | 65° |
| 2026-04-23 18:24 | 33.71471 | -129.15012 | 35174 ft | 532 kts | 65° |
| 2026-04-23 18:25 | 33.76248 | -129.02968 | 35174 ft | 532 kts | 65° |
| 2026-04-23 18:25 | 33.79414 | -128.94970 | 35165 ft | 532 kts | 65° |
| 2026-04-23 18:26 | 33.82597 | -128.86908 | 35165 ft | 534 kts | 65° |
| 2026-04-23 18:26 | 33.85727 | -128.78863 | 35165 ft | 533 kts | 68° |
| 2026-04-23 18:27 | 33.87756 | -128.70314 | 35165 ft | 530 kts | 84° |
| 2026-04-23 18:27 | 33.87986 | -128.61503 | 35166 ft | 526 kts | 96° |
| 2026-04-23 18:28 | 33.87645 | -128.52729 | 35165 ft | 527 kts | 94° |
| 2026-04-23 18:28 | 33.87647 | -128.43891 | 35165 ft | 528 kts | 91° |
| 2026-04-23 18:29 | 33.87868 | -128.35030 | 35165 ft | 529 kts | 90° |
| 2026-04-23 18:29 | 33.88119 | -128.26199 | 35165 ft | 530 kts | 91° |
| 2026-04-23 18:30 | 33.88347 | -128.17326 | 35165 ft | 530 kts | 91° |
| 2026-04-23 18:30 | 33.88558 | -128.08501 | 35159 ft | 531 kts | 91° |
| 2026-04-23 18:31 | 33.88759 | -127.99609 | 35156 ft | 530 kts | 91° |
| 2026-04-23 18:31 | 33.88956 | -127.90733 | 35156 ft | 530 kts | 91° |
| 2026-04-23 18:32 | 33.89148 | -127.81855 | 35156 ft | 530 kts | 91° |
| 2026-04-23 18:32 | 33.89327 | -127.73001 | 35156 ft | 530 kts | 91° |
| 2026-04-23 18:33 | 33.89476 | -127.64165 | 35156 ft | 530 kts | 91° |
| 2026-04-23 18:33 | 33.89634 | -127.55271 | 35156 ft | 530 kts | 91° |
| 2026-04-23 18:34 | 33.89799 | -127.46387 | 35155 ft | 530 kts | 91° |
| 2026-04-23 18:34 | 33.89958 | -127.37496 | 35156 ft | 531 kts | 91° |
| 2026-04-23 18:35 | 33.90111 | -127.28669 | 35155 ft | 530 kts | 91° |
| 2026-04-23 18:35 | 33.90258 | -127.19774 | 35156 ft | 531 kts | 91° |
| 2026-04-23 18:36 | 33.90398 | -127.10857 | 35156 ft | 532 kts | 91° |
| 2026-04-23 18:36 | 33.90530 | -127.01997 | 35156 ft | 532 kts | 91° |
| 2026-04-23 18:37 | 33.90658 | -126.93062 | 35156 ft | 533 kts | 92° |
| 2026-04-23 18:37 | 33.90781 | -126.84177 | 35156 ft | 533 kts | 92° |
| 2026-04-23 18:38 | 33.90896 | -126.75244 | 35156 ft | 534 kts | 92° |
| 2026-04-23 18:38 | 33.90976 | -126.66298 | 35156 ft | 534 kts | 92° |
| 2026-04-23 18:39 | 33.91057 | -126.57391 | 35156 ft | 534 kts | 92° |
| 2026-04-23 18:39 | 33.91150 | -126.48443 | 35156 ft | 534 kts | 92° |
| 2026-04-23 18:40 | 33.91241 | -126.39535 | 35156 ft | 534 kts | 92° |
| 2026-04-23 18:40 | 33.91325 | -126.30565 | 35156 ft | 535 kts | 92° |
| 2026-04-23 18:41 | 33.91401 | -126.21579 | 35156 ft | 535 kts | 92° |
| 2026-04-23 18:41 | 33.91470 | -126.12673 | 35156 ft | 535 kts | 92° |
| 2026-04-23 18:42 | 33.91534 | -126.03683 | 35156 ft | 535 kts | 92° |
| 2026-04-23 18:42 | 33.91591 | -125.94724 | 35156 ft | 535 kts | 92° |
| 2026-04-23 18:43 | 33.91641 | -125.85791 | 35156 ft | 535 kts | 92° |
| 2026-04-23 18:43 | 33.91685 | -125.76860 | 35156 ft | 535 kts | 92° |
| 2026-04-23 18:44 | 33.91700 | -125.67881 | 35156 ft | 535 kts | 93° |
| 2026-04-23 18:44 | 33.91707 | -125.58969 | 35155 ft | 535 kts | 92° |
| 2026-04-23 18:45 | 33.91722 | -125.49984 | 35147 ft | 536 kts | 92° |
| 2026-04-23 18:45 | 33.91739 | -125.42530 | 35147 ft | 535 kts | 92° |
| 2026-04-23 18:46 | 33.91758 | -125.33547 | 35147 ft | 535 kts | 92° |
| 2026-04-23 18:46 | 33.91764 | -125.24614 | 35146 ft | 536 kts | 92° |
| 2026-04-23 18:47 | 33.91762 | -125.15642 | 35146 ft | 535 kts | 92° |
| 2026-04-23 18:47 | 33.91754 | -125.06697 | 35146 ft | 536 kts | 92° |
| 2026-04-23 18:48 | 33.91737 | -124.97703 | 35147 ft | 536 kts | 92° |
| 2026-04-23 18:48 | 33.92239 | -124.88728 | 35147 ft | 539 kts | 81° |
| 2026-04-23 18:49 | 33.93858 | -124.79933 | 35147 ft | 541 kts | 77° |
| 2026-04-23 18:49 | 33.95677 | -124.71138 | 35147 ft | 540 kts | 77° |
| 2026-04-23 18:50 | 33.97110 | -124.63809 | 35142 ft | 539 kts | 78° |
| 2026-04-23 18:50 | 33.99026 | -124.53548 | 35143 ft | 540 kts | 78° |
| 2026-04-23 18:51 | 34.00652 | -124.44712 | 35143 ft | 540 kts | 78° |
| 2026-04-23 18:51 | 34.02282 | -124.35843 | 35153 ft | 540 kts | 78° |
| 2026-04-23 18:52 | 34.03895 | -124.27051 | 35155 ft | 540 kts | 78° |
| 2026-04-23 18:52 | 34.05515 | -124.18183 | 35156 ft | 539 kts | 78° |
| 2026-04-23 18:53 | 34.07115 | -124.09387 | 35155 ft | 540 kts | 78° |
| 2026-04-23 18:53 | 34.08718 | -124.00520 | 35156 ft | 540 kts | 78° |
| 2026-04-23 18:54 | 34.10301 | -123.91670 | 35156 ft | 540 kts | 78° |
| 2026-04-23 18:54 | 34.11857 | -123.82851 | 35156 ft | 540 kts | 78° |
| 2026-04-23 18:55 | 34.13434 | -123.73980 | 35155 ft | 540 kts | 78° |
| 2026-04-23 18:55 | 34.15014 | -123.65095 | 35156 ft | 540 kts | 78° |
| 2026-04-23 18:56 | 34.16320 | -123.57728 | 35155 ft | 540 kts | 78° |
| 2026-04-23 18:56 | 34.18147 | -123.47374 | 35156 ft | 540 kts | 78° |
| 2026-04-23 18:57 | 34.19698 | -123.38542 | 35156 ft | 540 kts | 78° |
| 2026-04-23 18:57 | 34.21244 | -123.29696 | 35146 ft | 539 kts | 78° |
| 2026-04-23 18:58 | 34.22786 | -123.20824 | 35121 ft | 539 kts | 78° |
| 2026-04-23 18:58 | 34.24316 | -123.11982 | 35117 ft | 538 kts | 79° |
| 2026-04-23 18:59 | 34.24976 | -123.02999 | 35121 ft | 535 kts | 93° |
| 2026-04-23 18:59 | 34.24490 | -122.94029 | 35117 ft | 534 kts | 97° |
| 2026-04-23 19:00 | 34.23901 | -122.85069 | 35118 ft | 534 kts | 96° |
| 2026-04-23 19:00 | 34.23447 | -122.76183 | 35118 ft | 533 kts | 95° |
| 2026-04-23 19:01 | 34.23046 | -122.67223 | 35119 ft | 532 kts | 94° |
| 2026-04-23 19:01 | 34.22647 | -122.58335 | 35119 ft | 531 kts | 95° |
| 2026-04-23 19:02 | 34.22302 | -122.50883 | 35116 ft | 530 kts | 95° |
| 2026-04-23 19:02 | 34.21814 | -122.40556 | 35127 ft | 529 kts | 95° |
| 2026-04-23 19:03 | 34.21386 | -122.31687 | 35118 ft | 528 kts | 95° |
| 2026-04-23 19:03 | 34.20955 | -122.22881 | 35119 ft | 527 kts | 95° |
| 2026-04-23 19:04 | 34.20517 | -122.14054 | 35119 ft | 526 kts | 95° |
| 2026-04-23 19:04 | 34.20063 | -122.05224 | 35119 ft | 526 kts | 95° |
| 2026-04-23 19:05 | 34.19588 | -121.96462 | 35119 ft | 524 kts | 95° |
| 2026-04-23 19:05 | 34.19120 | -121.87660 | 35117 ft | 524 kts | 95° |
| 2026-04-23 19:06 | 34.18659 | -121.78881 | 35118 ft | 523 kts | 95° |
| 2026-04-23 19:06 | 34.18192 | -121.70093 | 35119 ft | 524 kts | 95° |
| 2026-04-23 19:07 | 34.17718 | -121.61300 | 35119 ft | 524 kts | 95° |
| 2026-04-23 19:07 | 34.17239 | -121.52520 | 35119 ft | 523 kts | 95° |
| 2026-04-23 19:08 | 34.16756 | -121.43796 | 35119 ft | 524 kts | 95° |
| 2026-04-23 19:08 | 34.16263 | -121.35007 | 35119 ft | 524 kts | 95° |
| 2026-04-23 19:09 | 34.15768 | -121.26238 | 35119 ft | 524 kts | 95° |
| 2026-04-23 19:09 | 34.15259 | -121.17439 | 35119 ft | 524 kts | 95° |
| 2026-04-23 19:10 | 34.14749 | -121.08714 | 35118 ft | 523 kts | 95° |
| 2026-04-23 19:10 | 34.14210 | -120.99935 | 35118 ft | 523 kts | 94° |
| 2026-04-23 19:11 | 34.14372 | -120.91154 | 35082 ft | 524 kts | 85° |
| 2026-04-23 19:11 | 34.14729 | -120.86788 | 34595 ft | 528 kts | 84° |
| 2026-04-23 19:11 | 34.15146 | -120.82394 | 34094 ft | 525 kts | 83° |
| 2026-04-23 19:11 | 34.15564 | -120.78017 | 33594 ft | 524 kts | 84° |
| 2026-04-23 19:12 | 34.15831 | -120.75118 | 33267 ft | 524 kts | 84° |
| 2026-04-23 19:12 | 34.16341 | -120.69242 | 32596 ft | 526 kts | 84° |
| 2026-04-23 19:12 | 34.16703 | -120.64844 | 32097 ft | 527 kts | 84° |
| 2026-04-23 19:12 | 34.17054 | -120.60435 | 31597 ft | 528 kts | 84° |
| 2026-04-23 19:13 | 34.17402 | -120.56011 | 31096 ft | 529 kts | 85° |
| 2026-04-23 19:13 | 34.17744 | -120.51631 | 30602 ft | 530 kts | 84° |
| 2026-04-23 19:13 | 34.18090 | -120.47195 | 30102 ft | 529 kts | 85° |
| 2026-04-23 19:13 | 34.18436 | -120.42763 | 29599 ft | 527 kts | 85° |
| 2026-04-23 19:14 | 34.18777 | -120.38368 | 29097 ft | 523 kts | 84° |
| 2026-04-23 19:14 | 34.19108 | -120.34065 | 28603 ft | 519 kts | 85° |
| 2026-04-23 19:14 | 34.19374 | -120.29731 | 28103 ft | 515 kts | 86° |
| 2026-04-23 19:14 | 34.19565 | -120.25405 | 27601 ft | 510 kts | 88° |
| 2026-04-23 19:15 | 34.19717 | -120.21121 | 27097 ft | 507 kts | 88° |
| 2026-04-23 19:15 | 34.19858 | -120.16925 | 26606 ft | 504 kts | 88° |
| 2026-04-23 19:15 | 34.20002 | -120.12693 | 26100 ft | 501 kts | 88° |
| 2026-04-23 19:15 | 34.20144 | -120.08506 | 25598 ft | 497 kts | 88° |
| 2026-04-23 19:16 | 34.20208 | -120.04345 | 25099 ft | 494 kts | 90° |
| 2026-04-23 19:16 | 34.20190 | -120.00202 | 24598 ft | 490 kts | 91° |
| 2026-04-23 19:16 | 34.20133 | -119.96097 | 24102 ft | 487 kts | 91° |
| 2026-04-23 19:17 | 34.19998 | -119.88019 | 23101 ft | 481 kts | 91° |
| 2026-04-23 19:17 | 34.19934 | -119.83988 | 22600 ft | 477 kts | 91° |
| 2026-04-23 19:17 | 34.19874 | -119.79990 | 22098 ft | 474 kts | 91° |
| 2026-04-23 19:17 | 34.19817 | -119.76024 | 21598 ft | 471 kts | 91° |
| 2026-04-23 19:18 | 34.19761 | -119.72088 | 21198 ft | 467 kts | 91° |
| 2026-04-23 19:18 | 34.19704 | -119.68169 | 20823 ft | 465 kts | 91° |
| 2026-04-23 19:18 | 34.19648 | -119.64268 | 20447 ft | 464 kts | 91° |
| 2026-04-23 19:18 | 34.19591 | -119.60426 | 20061 ft | 462 kts | 91° |
| 2026-04-23 19:19 | 34.19472 | -119.52688 | 19007 ft | 456 kts | 91° |
| 2026-04-23 19:19 | 34.19411 | -119.48865 | 18483 ft | 452 kts | 91° |
| 2026-04-23 19:20 | 34.19287 | -119.41361 | 17435 ft | 446 kts | 91° |
| 2026-04-23 19:20 | 34.19223 | -119.37621 | 16908 ft | 442 kts | 91° |
| 2026-04-23 19:20 | 34.19157 | -119.33924 | 16381 ft | 437 kts | 91° |
| 2026-04-23 19:20 | 34.19089 | -119.30296 | 15858 ft | 432 kts | 91° |
| 2026-04-23 19:21 | 34.19023 | -119.26690 | 15337 ft | 427 kts | 91° |
| 2026-04-23 19:21 | 34.18902 | -119.19642 | 14281 ft | 408 kts | 90° |
| 2026-04-23 19:21 | 34.18844 | -119.16234 | 13757 ft | 403 kts | 90° |
| 2026-04-23 19:22 | 34.18787 | -119.12881 | 13234 ft | 397 kts | 90° |
| 2026-04-23 19:22 | 34.18730 | -119.09558 | 12706 ft | 393 kts | 90° |
| 2026-04-23 19:22 | 34.17585 | -119.03245 | 11898 ft | 384 kts | 113° |
| 2026-04-23 19:23 | 34.16494 | -119.00319 | 11516 ft | 381 kts | 116° |
| 2026-04-23 19:23 | 34.15338 | -118.97463 | 11156 ft | 376 kts | 116° |
| 2026-04-23 19:23 | 34.14188 | -118.94652 | 11033 ft | 372 kts | 116° |
| 2026-04-23 19:24 | 34.11956 | -118.89097 | 10989 ft | 369 kts | 116° |
| 2026-04-23 19:24 | 34.10855 | -118.86309 | 11000 ft | 362 kts | 115° |
| 2026-04-23 19:24 | 34.08838 | -118.81166 | 10832 ft | 318 kts | 115° |
| 2026-04-23 19:25 | 34.07001 | -118.76470 | 10334 ft | 306 kts | 115° |
| 2026-04-23 19:25 | 34.05214 | -118.71907 | 9839 ft | 299 kts | 115° |
| 2026-04-23 19:26 | 34.03468 | -118.67418 | 9287 ft | 293 kts | 111° |
| 2026-04-23 19:26 | 34.02927 | -118.65062 | 8829 ft | 291 kts | 99° |
| 2026-04-23 19:27 | 34.02409 | -118.60282 | 8009 ft | 283 kts | 96° |
| 2026-04-23 19:27 | 34.01769 | -118.53271 | 6549 ft | 281 kts | 96° |
| 2026-04-23 19:28 | 34.01345 | -118.48659 | 5750 ft | 272 kts | 96° |
| 2026-04-23 19:28 | 34.01368 | -118.44146 | 5070 ft | 270 kts | 80° |
| 2026-04-23 19:29 | 34.01715 | -118.41921 | 5013 ft | 271 kts | 78° |
| 2026-04-23 19:29 | 34.02466 | -118.37485 | 5004 ft | 271 kts | 78° |
| 2026-04-23 19:30 | 34.03052 | -118.32984 | 5002 ft | 272 kts | 83° |
| 2026-04-23 19:30 | 34.03286 | -118.30726 | 4999 ft | 272 kts | 83° |
| 2026-04-23 19:30 | 34.03781 | -118.26204 | 4999 ft | 272 kts | 82° |
| 2026-04-23 19:31 | 34.04034 | -118.23963 | 4785 ft | 273 kts | 82° |
| 2026-04-23 19:31 | 34.04288 | -118.21706 | 4482 ft | 270 kts | 82° |
| 2026-04-23 19:31 | 34.04541 | -118.19462 | 4184 ft | 269 kts | 83° |
| 2026-04-23 19:31 | 34.04791 | -118.17230 | 4028 ft | 267 kts | 83° |
| 2026-04-23 19:32 | 34.05031 | -118.15000 | 4002 ft | 267 kts | 86° |
| 2026-04-23 19:32 | 34.04809 | -118.12888 | 3986 ft | 250 kts | 112° |
| 2026-04-23 19:32 | 34.03808 | -118.11315 | 3982 ft | 232 kts | 148° |
| 2026-04-23 19:32 | 34.02265 | -118.10808 | 4022 ft | 232 kts | 181° |
| 2026-04-23 19:33 | 34.00664 | -118.11115 | 4002 ft | 233 kts | 198° |
| 2026-04-23 19:33 | 33.99192 | -118.11926 | 4007 ft | 233 kts | 213° |
| 2026-04-23 19:33 | 33.97568 | -118.15072 | 4019 ft | 226 kts | 263° |
| 2026-04-23 19:34 | 33.97466 | -118.16974 | 3811 ft | 228 kts | 266° |
| 2026-04-23 19:34 | 33.97375 | -118.18879 | 3524 ft | 226 kts | 265° |
| 2026-04-23 19:34 | 33.97015 | -118.22596 | 2940 ft | 221 kts | 262° |
| 2026-04-23 19:35 | 33.96884 | -118.23799 | 2751 ft | 214 kts | 262° |
| 2026-04-23 19:35 | 33.96704 | -118.25499 | 2477 ft | 195 kts | 262° |
| 2026-04-23 19:35 | 33.96490 | -118.27582 | 2143 ft | 186 kts | 262° |
| 2026-04-23 19:35 | 33.96331 | -118.29127 | 1895 ft | 185 kts | 262° |
| 2026-04-23 19:36 | 33.96224 | -118.30146 | 1741 ft | 184 kts | 262° |
| 2026-04-23 19:36 | 33.96069 | -118.31678 | 1500 ft | 183 kts | 262° |
| 2026-04-23 19:36 | 33.95916 | -118.33199 | 1269 ft | 182 kts | 262° |
| 2026-04-23 19:36 | 33.95766 | -118.34676 | 1013 ft | 167 kts | 262° |
| 2026-04-23 19:37 | 33.95629 | -118.36017 | 770 ft | 162 kts | 264° |
| 2026-04-23 19:37 | 33.95494 | -118.37364 | 586 ft | 162 kts | 264° |
| 2026-04-23 19:37 | 33.95363 | -118.38706 | 362 ft | 160 kts | 264° |
| 2026-04-23 19:37 | 33.95226 | -118.40016 | 180 ft | 160 kts | 263° |
| 2026-04-23 19:38 | 33.95101 | -118.41286 | 100 ft | 137 kts | 263° |
| 2026-04-23 19:38 | 33.95007 | -118.42186 | 102 ft | 79 kts | 263° |
| 2026-04-23 19:38 | 33.94895 | -118.42619 | 104 ft | 40 kts | 233° |
| 2026-04-23 19:38 | 33.94700 | -118.42762 | 107 ft | 26 kts | 180° |
| 2026-04-23 19:39 | 33.94642 | -118.42682 | 102 ft | 11 kts | 91° |
| 2026-04-23 19:39 | 33.94648 | -118.42595 | 102 ft | 10 kts | 84° |
| 2026-04-23 19:39 | 33.94655 | -118.42512 | 102 ft | 10 kts | 84° |
| 2026-04-23 19:39 | 33.94662 | -118.42434 | 102 ft | 9 kts | 83° |
| 2026-04-23 19:40 | 33.94670 | -118.42357 | 101 ft | 10 kts | 83° |
| 2026-04-23 19:40 | 33.94678 | -118.42276 | 100 ft | 10 kts | 83° |
| 2026-04-23 19:40 | 33.94688 | -118.42178 | 101 ft | 15 kts | 83° |
| 2026-04-23 19:40 | 33.94701 | -118.42056 | 101 ft | 14 kts | 82° |
| 2026-04-23 19:41 | 33.94717 | -118.41904 | 101 ft | 28 kts | 82° |
| 2026-04-23 19:41 | 33.94740 | -118.41672 | 101 ft | 26 kts | 84° |
| 2026-04-23 19:41 | 33.94760 | -118.41466 | 103 ft | 24 kts | 81° |
| 2026-04-23 19:41 | 33.94763 | -118.41308 | 102 ft | 14 kts | 133° |
| 2026-04-23 19:42 | 33.94713 | -118.41224 | 101 ft | 11 kts | 94° |
| 2026-04-23 19:42 | 33.94724 | -118.41142 | 103 ft | 9 kts | 82° |
| 2026-04-23 19:42 | 33.94731 | -118.41072 | 104 ft | 6 kts | 83° |
| 2026-04-23 19:42 | 33.94732 | -118.41067 | 99 ft | 0 kts | 83° |
| 2026-04-23 19:45 | 33.94732 | -118.41066 | 101 ft | 0 kts | 83° |
| 2026-04-23 19:46 | 33.94732 | -118.41063 | 100 ft | 2 kts | 83° |
| 2026-04-23 19:46 | 33.94738 | -118.40972 | 101 ft | 14 kts | 99° |
| 2026-04-23 19:46 | 33.94667 | -118.40908 | 101 ft | 15 kts | 168° |
| 2026-04-23 19:46 | 33.94584 | -118.40893 | 103 ft | 10 kts | 173° |
| 2026-04-23 19:47 | 33.94547 | -118.40885 | 100 ft | 2 kts | 164° |
| 2026-04-23 19:47 | 33.94545 | -118.40882 | 100 ft | 0 kts | 148° |
| 2026-04-23 19:47 | 33.94536 | -118.40860 | 100 ft | 5 kts | 108° |
| 2026-04-23 19:47 | 33.94533 | -118.40825 | 100 ft | 4 kts | 95° |
| 2026-04-23 19:48 | 33.94532 | -118.40813 | 100 ft | 1 kts | 95° |
| 2026-04-23 19:48 | 33.94531 | -118.40803 | 100 ft | 1 kts | 94° |
| 2026-04-23 19:48 | 33.94531 | -118.40799 | 100 ft | 0 kts | 93° |